MV Lockmaster — WDF4136 — position and weather

sailwx.info

Track history (hours):
 
Tides and Currents Weather Stations Pressure Air Temp Water Temp Dewpoint Dewpoint Depression Visibility Wind Speed Wind Dir Waves Ship Positions

MV Lockmaster

Owner: River Construction, Metaire, LA. More information available from US FCC via Universal Licensing System and Coast Guard Vessel Documentation Center.

Last reported at 2017-Jan-04 22:18 UTC. Time now 2017-Jan-18 20:07 UTC.
Position N 29°60' W 089°59'.
Warning: this ship's position is 13 days out of date.

Length 18 m; draft 2.5 m.

Type: Towing. MMSI: 367448420.

Date/timePositionNaut miles runAvg speedWind from/ knotsBaromVisibWave heightAir tempDewpointWater temp
2017-Jan-04 22:18N 29°60' W 089°59'0 0.0
2017-Jan-04 21:30N 30°00' W 089°59'0 0.0
2017-Jan-04 20:25N 30°00' W 089°59'0 0.0
2017-Jan-04 17:32N 29°60' W 089°59'0 0.0
2017-Jan-04 15:31N 30°00' W 089°59'0 0.0
2017-Jan-04 14:33N 30°00' W 089°59'0 0.0
2017-Jan-04 13:31N 29°60' W 089°59'0 0.0
2017-Jan-04 12:33N 30°00' W 089°59'0 0.0
2017-Jan-04 11:33N 30°00' W 089°59'0 0.0
2017-Jan-04 10:33N 29°60' W 089°59'0 0.0
2017-Jan-04 09:33N 30°00' W 089°59'0 0.0
2017-Jan-04 08:30N 30°00' W 089°59'0 0.0
2017-Jan-04 07:29N 29°60' W 089°59'0 0.0
2017-Jan-04 00:33N 30°00' W 089°59'0 0.0
2017-Jan-03 22:32N 29°60' W 089°59'0 0.0
2017-Jan-03 21:33N 30°00' W 089°59'0 0.0
2017-Jan-03 20:32N 30°00' W 089°59'0 0.0
2017-Jan-03 18:19N 30°00' W 089°59'0 0.0
2017-Jan-03 17:31N 30°00' W 089°59'0 0.0
2017-Jan-03 16:21N 30°00' W 089°59'0 0.0
2017-Jan-03 15:07N 30°00' W 089°59'0 0.0
2017-Jan-03 13:08N 30°00' W 089°59'0 0.0
2017-Jan-03 10:23N 29°60' W 089°59'0 0.0
2017-Jan-03 09:18N 30°00' W 089°59'0 0.0
2017-Jan-02 22:13N 30°00' W 089°59'0 0.0
2017-Jan-02 21:31N 30°00' W 089°59'0 0.0
2017-Jan-02 20:31N 30°00' W 089°59'0 0.0
2017-Jan-02 16:18N 30°00' W 089°59'0 0.0
2017-Jan-02 15:29N 30°00' W 089°59'0 0.0
2017-Jan-02 14:31N 30°00' W 089°59'0 0.0
2017-Jan-02 13:32N 30°00' W 089°59'0 0.0
2017-Jan-02 12:33N 29°60' W 089°59'0 0.0
2017-Jan-02 11:33N 30°00' W 089°59'0 0.0
2017-Jan-02 10:33N 30°00' W 089°59'0 0.0
2017-Jan-02 09:33N 30°00' W 089°59'0 0.0
2017-Jan-02 08:33N 29°60' W 089°59'0 0.0
2017-Jan-02 07:33N 30°00' W 089°59'0 0.0
2017-Jan-02 06:33N 30°00' W 089°59'0 0.0
2017-Jan-02 05:33N 29°60' W 089°59'0 0.0
2017-Jan-02 04:33N 29°60' W 089°59'0 0.0
2017-Jan-02 03:33N 30°00' W 089°59'1 1.3
2017-Jan-02 02:26N 29°59' W 090°01'2 2.7
2017-Jan-02 01:32N 29°57' W 090°02'2 0.7
2017-Jan-01 23:29N 29°59' W 090°01'0 0.1
2017-Jan-01 22:33N 29°59' W 090°01'2 1.7
2017-Jan-01 21:19N 30°00' W 089°59'0 0.0
2017-Jan-01 20:33N 29°60' W 089°59'0 0.0
2017-Jan-01 19:33N 30°00' W 089°59'0 0.0
2017-Jan-01 18:33N 30°00' W 089°59'1 0.4
2017-Jan-01 15:33N 29°60' W 090°01'2 0.4
2017-Jan-01 11:32N 29°58' W 090°02'2 1.2
2017-Jan-01 09:31N 30°00' W 089°59'0 0.0
2017-Jan-01 08:31N 30°00' W 089°59'0 0.0
2017-Jan-01 07:33N 30°00' W 089°59'0 0.0
2017-Jan-01 06:33N 30°00' W 089°59'0 0.0
2017-Jan-01 05:33N 30°00' W 089°59'0 0.0
2017-Jan-01 04:29N 30°00' W 089°59'0 0.0
2017-Jan-01 03:32N 30°00' W 089°59'0 0.0
2017-Jan-01 02:33N 30°00' W 089°59'0 0.0
2017-Jan-01 01:29N 30°00' W 089°59'0 0.0
2017-Jan-01 00:33N 30°00' W 089°59'0 0.0
2016-Dec-31 22:33N 29°60' W 089°59'0 0.0
2016-Dec-31 21:32N 30°00' W 089°59'1 1.0
2016-Dec-31 20:10N 29°60' W 090°01'1 0.2
2016-Dec-31 14:22N 30°00' W 089°59'0 0.0
2016-Dec-31 13:30N 29°60' W 089°59'0 0.0
2016-Dec-31 12:31N 30°00' W 089°59'0 0.0
2016-Dec-31 11:33N 30°00' W 089°59'0 0.0
2016-Dec-31 10:32N 29°60' W 089°59'0 0.0
2016-Dec-31 09:32N 29°60' W 089°59'0 0.0
2016-Dec-30 22:29N 30°00' W 089°59'0 0.0
2016-Dec-30 21:05N 30°00' W 089°59'1 0.1
2016-Dec-30 11:13N 29°60' W 090°01'2 2.8
2016-Dec-30 10:33N 29°58' W 090°02'3 0.2
2016-Dec-29 21:32N 30°00' W 089°59'0 0.0
2016-Dec-29 20:33N 30°00' W 089°59'0 0.0
2016-Dec-29 19:33N 30°00' W 089°59'0 0.0
2016-Dec-29 18:33N 29°60' W 089°59'0 0.0
2016-Dec-29 17:33N 30°00' W 089°59'0 0.0
2016-Dec-29 16:33N 29°60' W 089°59'0 0.0
2016-Dec-29 15:31N 29°60' W 089°59'0 0.0
2016-Dec-29 14:28N 30°00' W 089°59'0 0.0
2016-Dec-29 13:33N 30°00' W 089°59'0 0.0
2016-Dec-29 12:31N 30°00' W 089°59'0 0.0
2016-Dec-29 09:33N 30°00' W 089°59'0 0.0
2016-Dec-28 21:27N 30°00' W 089°59'0 0.0
2016-Dec-28 20:33N 30°00' W 089°59'0 0.0
2016-Dec-28 19:33N 30°00' W 089°59'0 0.0
2016-Dec-28 18:21N 29°60' W 089°59'0 0.0
2016-Dec-28 17:32N 29°60' W 089°59'0 0.0
2016-Dec-28 16:30N 29°60' W 089°59'0 0.0
2016-Dec-28 14:33N 30°00' W 089°59'0 0.0
2016-Dec-28 13:33N 30°00' W 089°59'0 0.0
2016-Dec-28 12:32N 30°00' W 089°59'0 0.0
2016-Dec-28 11:32N 30°00' W 089°59'0 0.0
2016-Dec-28 10:32N 30°00' W 089°59'0 0.0
2016-Dec-28 09:33N 30°00' W 089°59'3 0.3
2016-Dec-27 23:28N 29°58' W 090°02'0 0.0
2016-Dec-27 22:29N 29°58' W 090°02'0 0.0
2016-Dec-27 21:31N 29°58' W 090°02'1 0.3
2016-Dec-27 18:17N 29°59' W 090°01'2 1.1
2016-Dec-27 16:22N 30°00' W 089°59'0 0.0
2016-Dec-27 15:29N 29°60' W 089°59'0 0.0
2016-Dec-27 14:04N 30°00' W 089°59'0 0.0
2016-Dec-27 13:30N 30°00' W 089°59'0 0.0
2016-Dec-27 12:32N 30°00' W 089°59'0 0.0
2016-Dec-27 11:32N 29°60' W 089°59'0 0.0
2016-Dec-27 10:33N 30°00' W 089°59'0 0.0
2016-Dec-27 09:30N 30°00' W 089°59'0 0.0
2016-Dec-26 22:31N 29°60' W 089°59'0 0.0
2016-Dec-26 21:30N 30°00' W 089°59'0 0.0
2016-Dec-26 18:14N 29°60' W 089°59'0 0.2
2016-Dec-26 17:33N 29°60' W 089°59'0 0.0
2016-Dec-26 16:32N 29°60' W 089°59'0 0.0
2016-Dec-26 15:33N 30°00' W 089°59'2 2.1
2016-Dec-26 14:30N 29°59' W 090°02'0 0.0
2016-Dec-26 13:33N 29°59' W 090°02'1 0.7
2016-Dec-26 12:27N 29°58' W 090°02'0 0.1
2016-Dec-26 10:24N 29°58' W 090°02'3 3.3
2016-Dec-26 09:33N 30°00' W 089°59'  
Track history (hours):
 
Tides and Currents Weather Stations Pressure Air Temp Water Temp Dewpoint Dewpoint Depression Visibility Wind Speed Wind Dir Waves Ship Positions

MV Lockmaster

Owner: River Construction, Metaire, LA. More information available from US FCC via Universal Licensing System and Coast Guard Vessel Documentation Center.

Last reported at 2017-Jan-04 22:18 UTC. Time now 2017-Jan-18 20:07 UTC.
Position N 29°60' W 089°59'.
Warning: this ship's position is 13 days out of date.

Length 18 m; draft 2.5 m.

Type: Towing. MMSI: 367448420.

Date/timePositionNaut miles runAvg speedWind from/ knotsBaromVisibWave heightAir tempDewpointWater temp
2017-Jan-04 22:18N 29°60' W 089°59'0 0.0
2017-Jan-04 21:30N 30°00' W 089°59'0 0.0
2017-Jan-04 20:25N 30°00' W 089°59'0 0.0
2017-Jan-04 17:32N 29°60' W 089°59'0 0.0
2017-Jan-04 15:31N 30°00' W 089°59'0 0.0
2017-Jan-04 14:33N 30°00' W 089°59'0 0.0
2017-Jan-04 13:31N 29°60' W 089°59'0 0.0
2017-Jan-04 12:33N 30°00' W 089°59'0 0.0
2017-Jan-04 11:33N 30°00' W 089°59'0 0.0
2017-Jan-04 10:33N 29°60' W 089°59'0 0.0
2017-Jan-04 09:33N 30°00' W 089°59'0 0.0
2017-Jan-04 08:30N 30°00' W 089°59'0 0.0
2017-Jan-04 07:29N 29°60' W 089°59'0 0.0
2017-Jan-04 00:33N 30°00' W 089°59'0 0.0
2017-Jan-03 22:32N 29°60' W 089°59'0 0.0
2017-Jan-03 21:33N 30°00' W 089°59'0 0.0
2017-Jan-03 20:32N 30°00' W 089°59'0 0.0
2017-Jan-03 18:19N 30°00' W 089°59'0 0.0
2017-Jan-03 17:31N 30°00' W 089°59'0 0.0
2017-Jan-03 16:21N 30°00' W 089°59'0 0.0
2017-Jan-03 15:07N 30°00' W 089°59'0 0.0
2017-Jan-03 13:08N 30°00' W 089°59'0 0.0
2017-Jan-03 10:23N 29°60' W 089°59'0 0.0
2017-Jan-03 09:18N 30°00' W 089°59'0 0.0
2017-Jan-02 22:13N 30°00' W 089°59'0 0.0
2017-Jan-02 21:31N 30°00' W 089°59'0 0.0
2017-Jan-02 20:31N 30°00' W 089°59'0 0.0
2017-Jan-02 16:18N 30°00' W 089°59'0 0.0
2017-Jan-02 15:29N 30°00' W 089°59'0 0.0
2017-Jan-02 14:31N 30°00' W 089°59'0 0.0
2017-Jan-02 13:32N 30°00' W 089°59'0 0.0
2017-Jan-02 12:33N 29°60' W 089°59'0 0.0
2017-Jan-02 11:33N 30°00' W 089°59'0 0.0
2017-Jan-02 10:33N 30°00' W 089°59'0 0.0
2017-Jan-02 09:33N 30°00' W 089°59'0 0.0
2017-Jan-02 08:33N 29°60' W 089°59'0 0.0
2017-Jan-02 07:33N 30°00' W 089°59'0 0.0
2017-Jan-02 06:33N 30°00' W 089°59'0 0.0
2017-Jan-02 05:33N 29°60' W 089°59'0 0.0
2017-Jan-02 04:33N 29°60' W 089°59'0 0.0
2017-Jan-02 03:33N 30°00' W 089°59'1 1.3
2017-Jan-02 02:26N 29°59' W 090°01'2 2.7
2017-Jan-02 01:32N 29°57' W 090°02'2 0.7
2017-Jan-01 23:29N 29°59' W 090°01'0 0.1
2017-Jan-01 22:33N 29°59' W 090°01'2 1.7
2017-Jan-01 21:19N 30°00' W 089°59'0 0.0
2017-Jan-01 20:33N 29°60' W 089°59'0 0.0
2017-Jan-01 19:33N 30°00' W 089°59'0 0.0
2017-Jan-01 18:33N 30°00' W 089°59'1 0.4
2017-Jan-01 15:33N 29°60' W 090°01'2 0.4
2017-Jan-01 11:32N 29°58' W 090°02'2 1.2
2017-Jan-01 09:31N 30°00' W 089°59'0 0.0
2017-Jan-01 08:31N 30°00' W 089°59'0 0.0
2017-Jan-01 07:33N 30°00' W 089°59'0 0.0
2017-Jan-01 06:33N 30°00' W 089°59'0 0.0
2017-Jan-01 05:33N 30°00' W 089°59'0 0.0
2017-Jan-01 04:29N 30°00' W 089°59'0 0.0
2017-Jan-01 03:32N 30°00' W 089°59'0 0.0
2017-Jan-01 02:33N 30°00' W 089°59'0 0.0
2017-Jan-01 01:29N 30°00' W 089°59'0 0.0
2017-Jan-01 00:33N 30°00' W 089°59'0 0.0
2016-Dec-31 22:33N 29°60' W 089°59'0 0.0
2016-Dec-31 21:32N 30°00' W 089°59'1 1.0
2016-Dec-31 20:10N 29°60' W 090°01'1 0.2
2016-Dec-31 14:22N 30°00' W 089°59'0 0.0
2016-Dec-31 13:30N 29°60' W 089°59'0 0.0
2016-Dec-31 12:31N 30°00' W 089°59'0 0.0
2016-Dec-31 11:33N 30°00' W 089°59'0 0.0
2016-Dec-31 10:32N 29°60' W 089°59'0 0.0
2016-Dec-31 09:32N 29°60' W 089°59'0 0.0
2016-Dec-30 22:29N 30°00' W 089°59'0 0.0
2016-Dec-30 21:05N 30°00' W 089°59'1 0.1
2016-Dec-30 11:13N 29°60' W 090°01'2 2.8
2016-Dec-30 10:33N 29°58' W 090°02'3 0.2
2016-Dec-29 21:32N 30°00' W 089°59'0 0.0
2016-Dec-29 20:33N 30°00' W 089°59'0 0.0
2016-Dec-29 19:33N 30°00' W 089°59'0 0.0
2016-Dec-29 18:33N 29°60' W 089°59'0 0.0
2016-Dec-29 17:33N 30°00' W 089°59'0 0.0
2016-Dec-29 16:33N 29°60' W 089°59'0 0.0
2016-Dec-29 15:31N 29°60' W 089°59'0 0.0
2016-Dec-29 14:28N 30°00' W 089°59'0 0.0
2016-Dec-29 13:33N 30°00' W 089°59'0 0.0
2016-Dec-29 12:31N 30°00' W 089°59'0 0.0
2016-Dec-29 09:33N 30°00' W 089°59'0 0.0
2016-Dec-28 21:27N 30°00' W 089°59'0 0.0
2016-Dec-28 20:33N 30°00' W 089°59'0 0.0
2016-Dec-28 19:33N 30°00' W 089°59'0 0.0
2016-Dec-28 18:21N 29°60' W 089°59'0 0.0
2016-Dec-28 17:32N 29°60' W 089°59'0 0.0
2016-Dec-28 16:30N 29°60' W 089°59'0 0.0
2016-Dec-28 14:33N 30°00' W 089°59'0 0.0
2016-Dec-28 13:33N 30°00' W 089°59'0 0.0
2016-Dec-28 12:32N 30°00' W 089°59'0 0.0
2016-Dec-28 11:32N 30°00' W 089°59'0 0.0
2016-Dec-28 10:32N 30°00' W 089°59'0 0.0
2016-Dec-28 09:33N 30°00' W 089°59'3 0.3
2016-Dec-27 23:28N 29°58' W 090°02'0 0.0
2016-Dec-27 22:29N 29°58' W 090°02'0 0.0
2016-Dec-27 21:31N 29°58' W 090°02'1 0.3
2016-Dec-27 18:17N 29°59' W 090°01'2 1.1
2016-Dec-27 16:22N 30°00' W 089°59'0 0.0
2016-Dec-27 15:29N 29°60' W 089°59'0 0.0
2016-Dec-27 14:04N 30°00' W 089°59'0 0.0
2016-Dec-27 13:30N 30°00' W 089°59'0 0.0
2016-Dec-27 12:32N 30°00' W 089°59'0 0.0
2016-Dec-27 11:32N 29°60' W 089°59'0 0.0
2016-Dec-27 10:33N 30°00' W 089°59'0 0.0
2016-Dec-27 09:30N 30°00' W 089°59'0 0.0
2016-Dec-26 22:31N 29°60' W 089°59'0 0.0
2016-Dec-26 21:30N 30°00' W 089°59'0 0.0
2016-Dec-26 18:14N 29°60' W 089°59'0 0.2
2016-Dec-26 17:33N 29°60' W 089°59'0 0.0
2016-Dec-26 16:32N 29°60' W 089°59'0 0.0
2016-Dec-26 15:33N 30°00' W 089°59'2 2.1
2016-Dec-26 14:30N 29°59' W 090°02'0 0.0
2016-Dec-26 13:33N 29°59' W 090°02'1 0.7
2016-Dec-26 12:27N 29°58' W 090°02'0 0.1
2016-Dec-26 10:24N 29°58' W 090°02'3 3.3
2016-Dec-26 09:33N 30°00' W 089°59'  

Dump ship's entire track history